sensor_id;sensor_type;location;lat;lon;timestamp;P1;durP1;ratioP1;P2;durP2;ratioP2
39872;SDS011;63160;48.854;9.292;2022-09-09T00:04:30;2.33;;;1.35;;
39872;SDS011;63160;48.854;9.292;2022-09-09T00:09:42;4.18;;;1.20;;
39872;SDS011;63160;48.854;9.292;2022-09-09T00:15:22;3.78;;;1.35;;
39872;SDS011;63160;48.854;9.292;2022-09-09T00:25:48;3.75;;;1.73;;
39872;SDS011;63160;48.854;9.292;2022-09-09T00:28:22;3.38;;;1.13;;
39872;SDS011;63160;48.854;9.292;2022-09-09T00:30:49;6.75;;;1.92;;
39872;SDS011;63160;48.854;9.292;2022-09-09T00:33:17;2.95;;;1.20;;
39872;SDS011;63160;48.854;9.292;2022-09-09T00:35:49;2.72;;;1.52;;
39872;SDS011;63160;48.854;9.292;2022-09-09T00:48:04;6.78;;;2.03;;
39872;SDS011;63160;48.854;9.292;2022-09-09T00:50:08;5.57;;;1.33;;
39872;SDS011;63160;48.854;9.292;2022-09-09T00:55:45;3.28;;;1.20;;
39872;SDS011;63160;48.854;9.292;2022-09-09T00:58:15;5.60;;;1.25;;
39872;SDS011;63160;48.854;9.292;2022-09-09T01:00:52;1.55;;;0.98;;
39872;SDS011;63160;48.854;9.292;2022-09-09T01:06:11;5.18;;;1.48;;
39872;SDS011;63160;48.854;9.292;2022-09-09T01:16:47;3.47;;;1.42;;
39872;SDS011;63160;48.854;9.292;2022-09-09T01:19:19;4.32;;;1.45;;
39872;SDS011;63160;48.854;9.292;2022-09-09T01:21:56;3.72;;;1.83;;
39872;SDS011;63160;48.854;9.292;2022-09-09T01:27:14;3.83;;;1.10;;
39872;SDS011;63160;48.854;9.292;2022-09-09T01:29:41;5.07;;;1.10;;
39872;SDS011;63160;48.854;9.292;2022-09-09T01:35:10;3.53;;;1.75;;
39872;SDS011;63160;48.854;9.292;2022-09-09T01:37:41;4.82;;;1.30;;
39872;SDS011;63160;48.854;9.292;2022-09-09T01:40:08;4.30;;;1.30;;
39872;SDS011;63160;48.854;9.292;2022-09-09T01:42:36;4.68;;;1.30;;
39872;SDS011;63160;48.854;9.292;2022-09-09T01:45:03;3.20;;;1.30;;
39872;SDS011;63160;48.854;9.292;2022-09-09T01:47:31;4.78;;;1.30;;
39872;SDS011;63160;48.854;9.292;2022-09-09T01:50:08;2.65;;;1.10;;
39872;SDS011;63160;48.854;9.292;2022-09-09T01:52:37;5.50;;;1.67;;
39872;SDS011;63160;48.854;9.292;2022-09-09T01:55:08;2.50;;;1.25;;
39872;SDS011;63160;48.854;9.292;2022-09-09T01:57:49;2.85;;;1.70;;
39872;SDS011;63160;48.854;9.292;2022-09-09T02:00:22;6.03;;;2.95;;
39872;SDS011;63160;48.854;9.292;2022-09-09T02:03:00;7.03;;;3.38;;
39872;SDS011;63160;48.854;9.292;2022-09-09T02:05:41;7.22;;;3.03;;
39872;SDS011;63160;48.854;9.292;2022-09-09T02:08:34;5.35;;;2.75;;
39872;SDS011;63160;48.854;9.292;2022-09-09T02:16:37;4.13;;;1.70;;
39872;SDS011;63160;48.854;9.292;2022-09-09T02:19:09;8.07;;;3.10;;
39872;SDS011;63160;48.854;9.292;2022-09-09T02:21:55;6.55;;;3.20;;
39872;SDS011;63160;48.854;9.292;2022-09-09T02:24:23;3.90;;;1.55;;
39872;SDS011;63160;48.854;9.292;2022-09-09T02:26:59;3.72;;;1.55;;
39872;SDS011;63160;48.854;9.292;2022-09-09T02:29:35;6.10;;;1.52;;
39872;SDS011;63160;48.854;9.292;2022-09-09T02:32:06;1.80;;;0.95;;
39872;SDS011;63160;48.854;9.292;2022-09-09T02:34:39;6.80;;;1.10;;
39872;SDS011;63160;48.854;9.292;2022-09-09T02:37:08;2.45;;;1.27;;
39872;SDS011;63160;48.854;9.292;2022-09-09T02:39:37;3.70;;;1.13;;
39872;SDS011;63160;48.854;9.292;2022-09-09T02:42:07;1.80;;;0.88;;
39872;SDS011;63160;48.854;9.292;2022-09-09T02:44:34;2.72;;;0.93;;
39872;SDS011;63160;48.854;9.292;2022-09-09T02:55:31;5.97;;;1.30;;
39872;SDS011;63160;48.854;9.292;2022-09-09T02:58:09;1.48;;;0.75;;
39872;SDS011;63160;48.854;9.292;2022-09-09T03:00:39;3.25;;;1.10;;
39872;SDS011;63160;48.854;9.292;2022-09-09T03:03:06;4.13;;;1.35;;
39872;SDS011;63160;48.854;9.292;2022-09-09T03:05:36;4.00;;;2.08;;
39872;SDS011;63160;48.854;9.292;2022-09-09T03:08:03;6.20;;;2.20;;
39872;SDS011;63160;48.854;9.292;2022-09-09T03:10:32;6.68;;;2.60;;
39872;SDS011;63160;48.854;9.292;2022-09-09T03:12:59;7.20;;;2.10;;
39872;SDS011;63160;48.854;9.292;2022-09-09T03:15:29;5.85;;;2.67;;
39872;SDS011;63160;48.854;9.292;2022-09-09T03:17:57;5.47;;;2.55;;
39872;SDS011;63160;48.854;9.292;2022-09-09T03:20:25;4.43;;;2.40;;
39872;SDS011;63160;48.854;9.292;2022-09-09T03:22:53;6.50;;;2.75;;
39872;SDS011;63160;48.854;9.292;2022-09-09T03:25:21;7.57;;;1.30;;
39872;SDS011;63160;48.854;9.292;2022-09-09T03:27:51;4.78;;;1.23;;
39872;SDS011;63160;48.854;9.292;2022-09-09T03:30:21;4.55;;;1.42;;
39872;SDS011;63160;48.854;9.292;2022-09-09T03:32:49;6.85;;;1.38;;
39872;SDS011;63160;48.854;9.292;2022-09-09T03:35:16;4.43;;;2.20;;
39872;SDS011;63160;48.854;9.292;2022-09-09T03:37:43;5.03;;;1.60;;
39872;SDS011;63160;48.854;9.292;2022-09-09T03:40:11;8.23;;;1.92;;
39872;SDS011;63160;48.854;9.292;2022-09-09T03:42:41;2.75;;;1.23;;
39872;SDS011;63160;48.854;9.292;2022-09-09T03:45:09;4.10;;;1.38;;
39872;SDS011;63160;48.854;9.292;2022-09-09T03:47:39;2.38;;;1.20;;
39872;SDS011;63160;48.854;9.292;2022-09-09T03:50:06;3.67;;;1.83;;
39872;SDS011;63160;48.854;9.292;2022-09-09T03:52:37;5.60;;;1.50;;
39872;SDS011;63160;48.854;9.292;2022-09-09T03:55:07;5.07;;;2.15;;
39872;SDS011;63160;48.854;9.292;2022-09-09T03:57:36;2.70;;;1.63;;
39872;SDS011;63160;48.854;9.292;2022-09-09T04:00:07;2.20;;;1.17;;
39872;SDS011;63160;48.854;9.292;2022-09-09T04:02:46;4.35;;;2.15;;
39872;SDS011;63160;48.854;9.292;2022-09-09T04:05:15;4.45;;;1.13;;
39872;SDS011;63160;48.854;9.292;2022-09-09T04:07:43;10.23;;;1.15;;
39872;SDS011;63160;48.854;9.292;2022-09-09T04:10:11;4.97;;;2.65;;
39872;SDS011;63160;48.854;9.292;2022-09-09T04:12:39;4.30;;;2.20;;
39872;SDS011;63160;48.854;9.292;2022-09-09T04:15:05;1.50;;;1.20;;
39872;SDS011;63160;48.854;9.292;2022-09-09T04:17:34;2.05;;;1.35;;
39872;SDS011;63160;48.854;9.292;2022-09-09T04:20:03;5.65;;;1.27;;
39872;SDS011;63160;48.854;9.292;2022-09-09T04:22:30;4.65;;;1.23;;
39872;SDS011;63160;48.854;9.292;2022-09-09T04:24:58;6.78;;;1.05;;
39872;SDS011;63160;48.854;9.292;2022-09-09T04:27:26;8.65;;;1.23;;
39872;SDS011;63160;48.854;9.292;2022-09-09T04:29:52;3.33;;;1.23;;
39872;SDS011;63160;48.854;9.292;2022-09-09T04:32:20;1.65;;;0.98;;
39872;SDS011;63160;48.854;9.292;2022-09-09T04:34:47;3.40;;;1.40;;
39872;SDS011;63160;48.854;9.292;2022-09-09T04:37:14;5.18;;;1.27;;
39872;SDS011;63160;48.854;9.292;2022-09-09T04:39:41;4.38;;;1.08;;
39872;SDS011;63160;48.854;9.292;2022-09-09T04:42:08;5.10;;;1.50;;
39872;SDS011;63160;48.854;9.292;2022-09-09T04:44:35;4.97;;;1.25;;
39872;SDS011;63160;48.854;9.292;2022-09-09T04:47:02;2.65;;;1.50;;
39872;SDS011;63160;48.854;9.292;2022-09-09T04:49:29;5.50;;;1.40;;
39872;SDS011;63160;48.854;9.292;2022-09-09T04:51:57;4.28;;;1.30;;
39872;SDS011;63160;48.854;9.292;2022-09-09T04:54:24;4.82;;;1.50;;
39872;SDS011;63160;48.854;9.292;2022-09-09T04:56:51;5.88;;;1.48;;
39872;SDS011;63160;48.854;9.292;2022-09-09T04:59:18;3.90;;;1.42;;
39872;SDS011;63160;48.854;9.292;2022-09-09T05:01:49;2.85;;;1.20;;
39872;SDS011;63160;48.854;9.292;2022-09-09T05:04:16;5.20;;;1.42;;
39872;SDS011;63160;48.854;9.292;2022-09-09T05:06:43;3.42;;;1.10;;
39872;SDS011;63160;48.854;9.292;2022-09-09T05:09:11;6.85;;;1.20;;
39872;SDS011;63160;48.854;9.292;2022-09-09T05:11:38;3.20;;;1.08;;
39872;SDS011;63160;48.854;9.292;2022-09-09T05:14:21;4.95;;;1.20;;
39872;SDS011;63160;48.854;9.292;2022-09-09T05:16:49;6.20;;;1.10;;
39872;SDS011;63160;48.854;9.292;2022-09-09T05:19:16;3.20;;;1.02;;
39872;SDS011;63160;48.854;9.292;2022-09-09T05:21:47;6.57;;;1.40;;
39872;SDS011;63160;48.854;9.292;2022-09-09T05:24:17;2.53;;;1.38;;
39872;SDS011;63160;48.854;9.292;2022-09-09T05:26:45;2.70;;;1.20;;
39872;SDS011;63160;48.854;9.292;2022-09-09T05:29:12;4.63;;;1.20;;
39872;SDS011;63160;48.854;9.292;2022-09-09T05:31:39;4.40;;;1.33;;
39872;SDS011;63160;48.854;9.292;2022-09-09T05:34:10;3.75;;;1.42;;
39872;SDS011;63160;48.854;9.292;2022-09-09T05:36:36;7.50;;;1.60;;
39872;SDS011;63160;48.854;9.292;2022-09-09T05:39:03;3.05;;;1.02;;
39872;SDS011;63160;48.854;9.292;2022-09-09T05:41:32;2.33;;;0.88;;
39872;SDS011;63160;48.854;9.292;2022-09-09T05:44:01;6.88;;;1.80;;
39872;SDS011;63160;48.854;9.292;2022-09-09T05:46:30;4.30;;;1.25;;
39872;SDS011;63160;48.854;9.292;2022-09-09T05:48:57;7.25;;;1.83;;
39872;SDS011;63160;48.854;9.292;2022-09-09T05:51:28;5.47;;;1.27;;
39872;SDS011;63160;48.854;9.292;2022-09-09T05:54:03;5.13;;;1.50;;
39872;SDS011;63160;48.854;9.292;2022-09-09T05:56:33;3.78;;;1.20;;
39872;SDS011;63160;48.854;9.292;2022-09-09T05:59:01;3.78;;;1.50;;
39872;SDS011;63160;48.854;9.292;2022-09-09T06:01:29;4.00;;;1.30;;
39872;SDS011;63160;48.854;9.292;2022-09-09T06:03:57;3.17;;;1.40;;
39872;SDS011;63160;48.854;9.292;2022-09-09T06:06:25;2.15;;;1.00;;
39872;SDS011;63160;48.854;9.292;2022-09-09T06:08:56;2.63;;;1.42;;
39872;SDS011;63160;48.854;9.292;2022-09-09T06:11:32;3.53;;;1.83;;
39872;SDS011;63160;48.854;9.292;2022-09-09T06:14:00;2.80;;;1.30;;
39872;SDS011;63160;48.854;9.292;2022-09-09T06:16:29;5.05;;;1.30;;
39872;SDS011;63160;48.854;9.292;2022-09-09T06:18:59;4.13;;;1.55;;
39872;SDS011;63160;48.854;9.292;2022-09-09T06:21:28;3.80;;;1.67;;
39872;SDS011;63160;48.854;9.292;2022-09-09T06:24:05;6.97;;;2.15;;
39872;SDS011;63160;48.854;9.292;2022-09-09T06:26:35;4.15;;;1.73;;
39872;SDS011;63160;48.854;9.292;2022-09-09T06:29:03;3.88;;;1.65;;
39872;SDS011;63160;48.854;9.292;2022-09-09T06:31:31;5.47;;;1.70;;
39872;SDS011;63160;48.854;9.292;2022-09-09T06:34:07;5.07;;;1.40;;
39872;SDS011;63160;48.854;9.292;2022-09-09T06:36:38;4.95;;;1.30;;
39872;SDS011;63160;48.854;9.292;2022-09-09T06:39:06;5.50;;;1.75;;
39872;SDS011;63160;48.854;9.292;2022-09-09T06:41:39;4.68;;;1.42;;
39872;SDS011;63160;48.854;9.292;2022-09-09T06:44:13;4.55;;;1.00;;
39872;SDS011;63160;48.854;9.292;2022-09-09T06:46:41;4.53;;;1.33;;
39872;SDS011;63160;48.854;9.292;2022-09-09T06:49:09;7.47;;;1.50;;
39872;SDS011;63160;48.854;9.292;2022-09-09T06:51:37;5.78;;;1.15;;
39872;SDS011;63160;48.854;9.292;2022-09-09T06:54:12;2.60;;;1.10;;
39872;SDS011;63160;48.854;9.292;2022-09-09T06:56:42;5.72;;;1.65;;
39872;SDS011;63160;48.854;9.292;2022-09-09T06:59:20;4.47;;;1.70;;
39872;SDS011;63160;48.854;9.292;2022-09-09T07:01:47;6.43;;;1.50;;
39872;SDS011;63160;48.854;9.292;2022-09-09T07:04:21;6.72;;;1.30;;
39872;SDS011;63160;48.854;9.292;2022-09-09T07:06:47;4.28;;;1.50;;
39872;SDS011;63160;48.854;9.292;2022-09-09T07:09:20;2.05;;;1.10;;
39872;SDS011;63160;48.854;9.292;2022-09-09T07:11:50;7.95;;;1.70;;
39872;SDS011;63160;48.854;9.292;2022-09-09T07:14:22;6.60;;;1.27;;
39872;SDS011;63160;48.854;9.292;2022-09-09T07:16:55;3.75;;;1.30;;
39872;SDS011;63160;48.854;9.292;2022-09-09T07:19:26;4.03;;;1.20;;
39872;SDS011;63160;48.854;9.292;2022-09-09T07:21:54;6.32;;;1.20;;
39872;SDS011;63160;48.854;9.292;2022-09-09T07:24:22;5.78;;;1.10;;
39872;SDS011;63160;48.854;9.292;2022-09-09T07:26:50;6.25;;;1.48;;
39872;SDS011;63160;48.854;9.292;2022-09-09T07:29:19;3.10;;;1.35;;
39872;SDS011;63160;48.854;9.292;2022-09-09T07:31:47;5.78;;;1.52;;
39872;SDS011;63160;48.854;9.292;2022-09-09T07:34:19;6.43;;;1.40;;
39872;SDS011;63160;48.854;9.292;2022-09-09T07:36:47;8.68;;;1.33;;
39872;SDS011;63160;48.854;9.292;2022-09-09T07:39:15;1.58;;;0.88;;
39872;SDS011;63160;48.854;9.292;2022-09-09T07:41:48;4.72;;;0.80;;
39872;SDS011;63160;48.854;9.292;2022-09-09T07:44:19;2.35;;;1.00;;
39872;SDS011;63160;48.854;9.292;2022-09-09T07:46:50;4.47;;;1.33;;
39872;SDS011;63160;48.854;9.292;2022-09-09T07:49:23;7.57;;;2.00;;
39872;SDS011;63160;48.854;9.292;2022-09-09T07:51:58;3.03;;;1.13;;
39872;SDS011;63160;48.854;9.292;2022-09-09T07:54:25;2.45;;;0.90;;
39872;SDS011;63160;48.854;9.292;2022-09-09T07:56:53;3.50;;;1.17;;
39872;SDS011;63160;48.854;9.292;2022-09-09T07:59:22;3.50;;;1.15;;
39872;SDS011;63160;48.854;9.292;2022-09-09T08:01:52;8.00;;;1.08;;
39872;SDS011;63160;48.854;9.292;2022-09-09T08:04:24;5.18;;;1.13;;
39872;SDS011;63160;48.854;9.292;2022-09-09T08:06:53;5.57;;;1.30;;
39872;SDS011;63160;48.854;9.292;2022-09-09T08:09:23;2.00;;;1.05;;
39872;SDS011;63160;48.854;9.292;2022-09-09T08:11:55;6.28;;;1.35;;
39872;SDS011;63160;48.854;9.292;2022-09-09T08:14:28;4.63;;;1.13;;
39872;SDS011;63160;48.854;9.292;2022-09-09T08:16:56;2.55;;;1.02;;
39872;SDS011;63160;48.854;9.292;2022-09-09T08:19:26;4.88;;;1.27;;
39872;SDS011;63160;48.854;9.292;2022-09-09T08:21:56;5.18;;;1.50;;
39872;SDS011;63160;48.854;9.292;2022-09-09T08:24:23;4.25;;;1.20;;
39872;SDS011;63160;48.854;9.292;2022-09-09T08:26:50;4.38;;;0.93;;
39872;SDS011;63160;48.854;9.292;2022-09-09T08:29:21;5.95;;;0.93;;
39872;SDS011;63160;48.854;9.292;2022-09-09T08:31:52;8.40;;;1.75;;
39872;SDS011;63160;48.854;9.292;2022-09-09T08:34:25;3.83;;;1.30;;
39872;SDS011;63160;48.854;9.292;2022-09-09T08:36:55;4.63;;;1.27;;
39872;SDS011;63160;48.854;9.292;2022-09-09T08:39:28;4.25;;;1.33;;
39872;SDS011;63160;48.854;9.292;2022-09-09T08:58:13;3.10;;;1.30;;
39872;SDS011;63160;48.854;9.292;2022-09-09T09:00:49;4.10;;;0.73;;
39872;SDS011;63160;48.854;9.292;2022-09-09T09:09:08;4.68;;;1.13;;
39872;SDS011;63160;48.854;9.292;2022-09-09T09:11:43;3.13;;;1.10;;
39872;SDS011;63160;48.854;9.292;2022-09-09T09:14:17;2.45;;;0.77;;
39872;SDS011;63160;48.854;9.292;2022-09-09T09:19:23;7.28;;;1.05;;
39872;SDS011;63160;48.854;9.292;2022-09-09T09:30:00;6.07;;;0.90;;
39872;SDS011;63160;48.854;9.292;2022-09-09T09:35:24;2.47;;;0.73;;
39872;SDS011;63160;48.854;9.292;2022-09-09T09:37:50;3.83;;;0.70;;
39872;SDS011;63160;48.854;9.292;2022-09-09T09:40:37;2.55;;;0.80;;
39872;SDS011;63160;48.854;9.292;2022-09-09T09:43:18;5.07;;;1.10;;
39872;SDS011;63160;48.854;9.292;2022-09-09T09:45:47;5.00;;;0.90;;
39872;SDS011;63160;48.854;9.292;2022-09-09T09:48:34;4.93;;;0.88;;
39872;SDS011;63160;48.854;9.292;2022-09-09T09:51:04;3.13;;;0.80;;
39872;SDS011;63160;48.854;9.292;2022-09-09T09:53:38;3.80;;;0.80;;
39872;SDS011;63160;48.854;9.292;2022-09-09T09:56:07;4.10;;;0.55;;
39872;SDS011;63160;48.854;9.292;2022-09-09T10:01:28;1.67;;;0.57;;
39872;SDS011;63160;48.854;9.292;2022-09-09T10:04:00;3.47;;;0.47;;
39872;SDS011;63160;48.854;9.292;2022-09-09T10:06:33;2.47;;;0.45;;
39872;SDS011;63160;48.854;9.292;2022-09-09T10:09:01;2.37;;;0.50;;
39872;SDS011;63160;48.854;9.292;2022-09-09T10:19:33;1.60;;;0.68;;
39872;SDS011;63160;48.854;9.292;2022-09-09T10:30:27;2.03;;;0.50;;
39872;SDS011;63160;48.854;9.292;2022-09-09T10:38:23;4.85;;;1.13;;
39872;SDS011;63160;48.854;9.292;2022-09-09T10:43:33;2.55;;;0.70;;
39872;SDS011;63160;48.854;9.292;2022-09-09T10:54:52;4.00;;;1.00;;
39872;SDS011;63160;48.854;9.292;2022-09-09T11:00:03;2.30;;;0.77;;
39872;SDS011;63160;48.854;9.292;2022-09-09T11:02:32;2.15;;;0.77;;
39872;SDS011;63160;48.854;9.292;2022-09-09T11:10:58;4.43;;;1.17;;
39872;SDS011;63160;48.854;9.292;2022-09-09T11:16:24;3.50;;;1.20;;
39872;SDS011;63160;48.854;9.292;2022-09-09T11:19:24;6.53;;;1.38;;
39872;SDS011;63160;48.854;9.292;2022-09-09T11:21:53;4.03;;;1.00;;
39872;SDS011;63160;48.854;9.292;2022-09-09T11:24:22;3.20;;;0.60;;
39872;SDS011;63160;48.854;9.292;2022-09-09T11:27:11;3.42;;;0.80;;
39872;SDS011;63160;48.854;9.292;2022-09-09T11:30:02;3.50;;;0.98;;
39872;SDS011;63160;48.854;9.292;2022-09-09T11:38:20;22.90;;;3.08;;
39872;SDS011;63160;48.854;9.292;2022-09-09T11:40:59;11.15;;;2.20;;
39872;SDS011;63160;48.854;9.292;2022-09-09T11:43:29;7.13;;;1.40;;
39872;SDS011;63160;48.854;9.292;2022-09-09T11:46:00;11.07;;;1.52;;
39872;SDS011;63160;48.854;9.292;2022-09-09T11:48:36;7.20;;;1.63;;
39872;SDS011;63160;48.854;9.292;2022-09-09T11:51:06;12.10;;;1.65;;
39872;SDS011;63160;48.854;9.292;2022-09-09T11:56:23;5.95;;;1.55;;
39872;SDS011;63160;48.854;9.292;2022-09-09T12:01:41;5.13;;;1.30;;
39872;SDS011;63160;48.854;9.292;2022-09-09T12:04:11;6.55;;;1.02;;
39872;SDS011;63160;48.854;9.292;2022-09-09T12:11:49;3.60;;;0.80;;
39872;SDS011;63160;48.854;9.292;2022-09-09T12:14:34;3.55;;;0.68;;
39872;SDS011;63160;48.854;9.292;2022-09-09T12:17:17;3.92;;;0.80;;
39872;SDS011;63160;48.854;9.292;2022-09-09T12:19:46;3.28;;;0.82;;
39872;SDS011;63160;48.854;9.292;2022-09-09T12:22:27;2.40;;;0.60;;
39872;SDS011;63160;48.854;9.292;2022-09-09T12:25:04;1.60;;;0.60;;
39872;SDS011;63160;48.854;9.292;2022-09-09T12:30:23;2.40;;;0.50;;
39872;SDS011;63160;48.854;9.292;2022-09-09T12:33:10;1.30;;;0.40;;
39872;SDS011;63160;48.854;9.292;2022-09-09T12:35:42;1.85;;;0.35;;
39872;SDS011;63160;48.854;9.292;2022-09-09T12:38:12;3.80;;;0.85;;
39872;SDS011;63160;48.854;9.292;2022-09-09T12:40:53;1.70;;;0.55;;
39872;SDS011;63160;48.854;9.292;2022-09-09T12:43:22;1.00;;;0.30;;
39872;SDS011;63160;48.854;9.292;2022-09-09T12:45:51;4.22;;;0.70;;
39872;SDS011;63160;48.854;9.292;2022-09-09T12:48:28;1.77;;;0.63;;
39872;SDS011;63160;48.854;9.292;2022-09-09T12:51:05;0.93;;;0.32;;
39872;SDS011;63160;48.854;9.292;2022-09-09T12:53:44;0.75;;;0.30;;
39872;SDS011;63160;48.854;9.292;2022-09-09T12:56:19;1.88;;;0.60;;
39872;SDS011;63160;48.854;9.292;2022-09-09T12:58:49;3.63;;;0.57;;
39872;SDS011;63160;48.854;9.292;2022-09-09T13:01:25;4.90;;;0.70;;
39872;SDS011;63160;48.854;9.292;2022-09-09T13:03:53;4.00;;;0.65;;
39872;SDS011;63160;48.854;9.292;2022-09-09T13:06:24;4.22;;;0.47;;
39872;SDS011;63160;48.854;9.292;2022-09-09T13:08:55;1.08;;;0.45;;
39872;SDS011;63160;48.854;9.292;2022-09-09T13:11:24;1.63;;;0.45;;
39872;SDS011;63160;48.854;9.292;2022-09-09T13:13:53;1.35;;;0.40;;
39872;SDS011;63160;48.854;9.292;2022-09-09T13:16:23;0.93;;;0.40;;
39872;SDS011;63160;48.854;9.292;2022-09-09T13:19:10;5.25;;;0.40;;
39872;SDS011;63160;48.854;9.292;2022-09-09T13:21:41;1.38;;;0.65;;
39872;SDS011;63160;48.854;9.292;2022-09-09T13:26:59;1.15;;;0.52;;
39872;SDS011;63160;48.854;9.292;2022-09-09T13:29:31;3.08;;;0.45;;
39872;SDS011;63160;48.854;9.292;2022-09-09T13:32:05;2.03;;;0.60;;
39872;SDS011;63160;48.854;9.292;2022-09-09T13:34:34;3.72;;;0.60;;
39872;SDS011;63160;48.854;9.292;2022-09-09T13:37:02;5.28;;;0.50;;
39872;SDS011;63160;48.854;9.292;2022-09-09T13:39:32;4.07;;;0.90;;
39872;SDS011;63160;48.854;9.292;2022-09-09T13:42:00;4.13;;;0.57;;
39872;SDS011;63160;48.854;9.292;2022-09-09T13:44:38;3.75;;;0.60;;
39872;SDS011;63160;48.854;9.292;2022-09-09T13:47:15;2.47;;;0.50;;
39872;SDS011;63160;48.854;9.292;2022-09-09T13:49:45;1.02;;;0.30;;
39872;SDS011;63160;48.854;9.292;2022-09-09T13:52:14;2.58;;;0.60;;
39872;SDS011;63160;48.854;9.292;2022-09-09T13:54:46;2.92;;;0.77;;
39872;SDS011;63160;48.854;9.292;2022-09-09T13:57:17;2.85;;;0.60;;
39872;SDS011;63160;48.854;9.292;2022-09-09T13:59:46;2.30;;;0.63;;
39872;SDS011;63160;48.854;9.292;2022-09-09T14:02:30;1.60;;;0.40;;
39872;SDS011;63160;48.854;9.292;2022-09-09T14:04:57;1.15;;;0.40;;
39872;SDS011;63160;48.854;9.292;2022-09-09T14:07:24;2.05;;;0.50;;
39872;SDS011;63160;48.854;9.292;2022-09-09T14:09:51;2.20;;;0.52;;
39872;SDS011;63160;48.854;9.292;2022-09-09T14:12:18;3.03;;;0.50;;
39872;SDS011;63160;48.854;9.292;2022-09-09T14:14:47;2.88;;;0.80;;
39872;SDS011;63160;48.854;9.292;2022-09-09T14:17:13;3.10;;;0.77;;
39872;SDS011;63160;48.854;9.292;2022-09-09T14:19:41;6.07;;;0.80;;
39872;SDS011;63160;48.854;9.292;2022-09-09T14:22:09;1.73;;;0.50;;
39872;SDS011;63160;48.854;9.292;2022-09-09T14:24:35;3.30;;;0.50;;
39872;SDS011;63160;48.854;9.292;2022-09-09T14:27:02;1.23;;;0.35;;
39872;SDS011;63160;48.854;9.292;2022-09-09T14:29:29;2.35;;;0.43;;
39872;SDS011;63160;48.854;9.292;2022-09-09T14:31:55;3.55;;;0.50;;
39872;SDS011;63160;48.854;9.292;2022-09-09T14:34:23;2.85;;;0.20;;
39872;SDS011;63160;48.854;9.292;2022-09-09T14:36:50;6.40;;;0.60;;
39872;SDS011;63160;48.854;9.292;2022-09-09T14:39:17;1.20;;;0.35;;
39872;SDS011;63160;48.854;9.292;2022-09-09T14:41:44;1.38;;;0.30;;
39872;SDS011;63160;48.854;9.292;2022-09-09T14:44:12;1.95;;;0.50;;
39872;SDS011;63160;48.854;9.292;2022-09-09T14:46:38;1.38;;;0.50;;
39872;SDS011;63160;48.854;9.292;2022-09-09T14:49:05;2.53;;;0.50;;
39872;SDS011;63160;48.854;9.292;2022-09-09T14:51:32;2.03;;;0.38;;
39872;SDS011;63160;48.854;9.292;2022-09-09T14:54:01;1.13;;;0.40;;
39872;SDS011;63160;48.854;9.292;2022-09-09T14:56:29;1.23;;;0.40;;
39872;SDS011;63160;48.854;9.292;2022-09-09T14:59:00;3.38;;;0.57;;
39872;SDS011;63160;48.854;9.292;2022-09-09T15:01:28;3.65;;;0.40;;
39872;SDS011;63160;48.854;9.292;2022-09-09T15:03:57;2.00;;;0.47;;
39872;SDS011;63160;48.854;9.292;2022-09-09T15:06:26;2.33;;;0.55;;
39872;SDS011;63160;48.854;9.292;2022-09-09T15:08:55;0.80;;;0.32;;
39872;SDS011;63160;48.854;9.292;2022-09-09T15:11:27;0.43;;;0.30;;
39872;SDS011;63160;48.854;9.292;2022-09-09T15:13:54;1.13;;;0.60;;
39872;SDS011;63160;48.854;9.292;2022-09-09T15:16:25;1.52;;;0.40;;
39872;SDS011;63160;48.854;9.292;2022-09-09T15:18:55;1.00;;;0.30;;
39872;SDS011;63160;48.854;9.292;2022-09-09T15:21:29;0.90;;;0.30;;
39872;SDS011;63160;48.854;9.292;2022-09-09T15:23:58;1.65;;;0.32;;
39872;SDS011;63160;48.854;9.292;2022-09-09T15:26:26;1.55;;;0.40;;
39872;SDS011;63160;48.854;9.292;2022-09-09T15:28:54;5.38;;;0.57;;
39872;SDS011;63160;48.854;9.292;2022-09-09T15:31:21;2.53;;;0.40;;
39872;SDS011;63160;48.854;9.292;2022-09-09T15:33:53;2.45;;;0.40;;
39872;SDS011;63160;48.854;9.292;2022-09-09T15:36:31;2.05;;;0.40;;
39872;SDS011;63160;48.854;9.292;2022-09-09T15:39:02;2.22;;;0.40;;
39872;SDS011;63160;48.854;9.292;2022-09-09T15:41:31;2.10;;;0.47;;
39872;SDS011;63160;48.854;9.292;2022-09-09T15:43:58;2.67;;;0.50;;
39872;SDS011;63160;48.854;9.292;2022-09-09T15:46:33;0.90;;;0.32;;
39872;SDS011;63160;48.854;9.292;2022-09-09T15:49:06;1.38;;;0.47;;
39872;SDS011;63160;48.854;9.292;2022-09-09T15:51:41;0.68;;;0.35;;
39872;SDS011;63160;48.854;9.292;2022-09-09T15:54:11;3.22;;;1.13;;
39872;SDS011;63160;48.854;9.292;2022-09-09T15:56:39;2.53;;;0.32;;
39872;SDS011;63160;48.854;9.292;2022-09-09T15:59:06;1.88;;;0.40;;
39872;SDS011;63160;48.854;9.292;2022-09-09T16:01:33;1.48;;;0.40;;
39872;SDS011;63160;48.854;9.292;2022-09-09T16:04:00;1.15;;;0.30;;
39872;SDS011;63160;48.854;9.292;2022-09-09T16:06:27;1.35;;;0.40;;
39872;SDS011;63160;48.854;9.292;2022-09-09T16:08:55;0.73;;;0.32;;
39872;SDS011;63160;48.854;9.292;2022-09-09T16:11:33;1.73;;;0.60;;
39872;SDS011;63160;48.854;9.292;2022-09-09T16:14:02;1.33;;;0.45;;
39872;SDS011;63160;48.854;9.292;2022-09-09T16:16:30;1.45;;;0.40;;
39872;SDS011;63160;48.854;9.292;2022-09-09T16:18:58;1.58;;;0.40;;
39872;SDS011;63160;48.854;9.292;2022-09-09T16:21:27;2.45;;;0.47;;
39872;SDS011;63160;48.854;9.292;2022-09-09T16:23:56;3.88;;;0.63;;
39872;SDS011;63160;48.854;9.292;2022-09-09T16:26:26;2.88;;;0.32;;
39872;SDS011;63160;48.854;9.292;2022-09-09T16:28:53;1.05;;;0.43;;
39872;SDS011;63160;48.854;9.292;2022-09-09T16:31:21;1.80;;;0.50;;
39872;SDS011;63160;48.854;9.292;2022-09-09T16:33:49;2.67;;;0.30;;
39872;SDS011;63160;48.854;9.292;2022-09-09T16:36:20;1.17;;;0.32;;
39872;SDS011;63160;48.854;9.292;2022-09-09T16:41:20;2.53;;;0.30;;
39872;SDS011;63160;48.854;9.292;2022-09-09T16:43:51;3.15;;;0.40;;
39872;SDS011;63160;48.854;9.292;2022-09-09T16:46:22;4.72;;;0.30;;
39872;SDS011;63160;48.854;9.292;2022-09-09T16:48:50;2.10;;;0.40;;
39872;SDS011;63160;48.854;9.292;2022-09-09T16:51:21;0.82;;;0.28;;
39872;SDS011;63160;48.854;9.292;2022-09-09T16:53:50;1.88;;;0.32;;
39872;SDS011;63160;48.854;9.292;2022-09-09T16:56:18;0.70;;;0.30;;
39872;SDS011;63160;48.854;9.292;2022-09-09T16:58:51;2.65;;;0.35;;
39872;SDS011;63160;48.854;9.292;2022-09-09T17:01:23;1.00;;;0.30;;
39872;SDS011;63160;48.854;9.292;2022-09-09T17:03:53;0.55;;;0.40;;
39872;SDS011;63160;48.854;9.292;2022-09-09T17:06:27;2.53;;;0.25;;
39872;SDS011;63160;48.854;9.292;2022-09-09T17:08:57;2.22;;;0.30;;
39872;SDS011;63160;48.854;9.292;2022-09-09T17:11:25;2.15;;;0.30;;
39872;SDS011;63160;48.854;9.292;2022-09-09T17:13:52;1.70;;;0.30;;
39872;SDS011;63160;48.854;9.292;2022-09-09T17:16:19;1.40;;;0.60;;
39872;SDS011;63160;48.854;9.292;2022-09-09T17:18:50;3.33;;;0.30;;
39872;SDS011;63160;48.854;9.292;2022-09-09T17:21:19;0.95;;;0.30;;
39872;SDS011;63160;48.854;9.292;2022-09-09T17:23:47;1.17;;;0.73;;
39872;SDS011;63160;48.854;9.292;2022-09-09T17:26:15;3.20;;;0.50;;
39872;SDS011;63160;48.854;9.292;2022-09-09T17:28:45;1.67;;;0.20;;
39872;SDS011;63160;48.854;9.292;2022-09-09T17:31:13;1.05;;;0.25;;
39872;SDS011;63160;48.854;9.292;2022-09-09T17:33:42;0.77;;;0.30;;
39872;SDS011;63160;48.854;9.292;2022-09-09T17:36:14;1.08;;;0.45;;
39872;SDS011;63160;48.854;9.292;2022-09-09T17:41:13;0.60;;;0.30;;
39872;SDS011;63160;48.854;9.292;2022-09-09T17:43:48;2.70;;;0.30;;
39872;SDS011;63160;48.854;9.292;2022-09-09T17:46:16;0.47;;;0.30;;
39872;SDS011;63160;48.854;9.292;2022-09-09T17:48:50;1.27;;;0.43;;
39872;SDS011;63160;48.854;9.292;2022-09-09T17:51:20;1.60;;;0.60;;
39872;SDS011;63160;48.854;9.292;2022-09-09T17:53:51;0.88;;;0.60;;
39872;SDS011;63160;48.854;9.292;2022-09-09T17:56:18;2.53;;;0.47;;
39872;SDS011;63160;48.854;9.292;2022-09-09T17:58:46;1.73;;;0.70;;